createdAt,value
2022-11-17T00:05:02.683Z,17.6
2022-11-17T00:15:18.304Z,17.6
2022-11-17T00:20:26.137Z,17.5
2022-11-17T00:25:33.979Z,17.6
2022-11-17T00:30:41.802Z,17.5
2022-11-17T00:40:57.457Z,17.5
2022-11-17T00:46:26.736Z,17.5
2022-11-17T00:51:34.612Z,17.5
2022-11-17T00:56:42.409Z,17.5
2022-11-17T01:01:50.225Z,17.5
2022-11-17T01:06:58.061Z,17.5
2022-11-17T01:12:05.894Z,17.5
2022-11-17T01:17:13.697Z,17.5
2022-11-17T01:22:21.543Z,17.5
2022-11-17T01:32:37.192Z,17.5
2022-11-17T01:37:45.046Z,17.5
2022-11-17T01:42:51.249Z,17.5
2022-11-17T01:47:57.352Z,17.5
2022-11-17T01:53:03.427Z,17.5
2022-11-17T01:58:09.521Z,17.5
2022-11-17T02:03:15.606Z,17.5
2022-11-17T02:08:21.702Z,17.5
2022-11-17T02:13:27.789Z,17.4
2022-11-17T02:18:33.891Z,17.5
2022-11-17T02:23:39.972Z,17.4
2022-11-17T02:28:46.108Z,17.5
2022-11-17T02:33:52.164Z,17.4
2022-11-17T02:38:58.244Z,17.4
2022-11-17T02:44:04.337Z,17.4
2022-11-17T02:49:10.449Z,17.4
2022-11-17T02:54:16.528Z,17.4
2022-11-17T02:59:22.635Z,17.4
2022-11-17T03:04:28.691Z,17.4
2022-11-17T03:09:34.797Z,17.4
2022-11-17T03:14:40.882Z,17.4
2022-11-17T03:19:46.974Z,17.4
2022-11-17T03:24:53.084Z,17.4
2022-11-17T03:29:59.167Z,17.4
2022-11-17T03:35:05.254Z,17.4
2022-11-17T03:40:11.336Z,17.4
2022-11-17T03:50:22.549Z,17.4
2022-11-17T03:55:28.628Z,17.4
2022-11-17T04:00:34.723Z,17.4
2022-11-17T04:05:40.826Z,17.4
2022-11-17T04:10:46.912Z,17.4
2022-11-17T04:15:53.034Z,17.4
2022-11-17T04:20:59.100Z,17.4
2022-11-17T04:26:05.184Z,17.4
2022-11-17T04:31:11.269Z,17.4
2022-11-17T04:36:17.467Z,17.3
2022-11-17T04:41:23.551Z,17.3
2022-11-17T04:46:29.549Z,17.3
2022-11-17T04:51:35.640Z,17.3
2022-11-17T04:56:41.836Z,17.3
2022-11-17T05:01:47.814Z,17.3
2022-11-17T05:06:53.910Z,17.3
2022-11-17T05:12:00.061Z,17.3
2022-11-17T05:17:06.103Z,17.3
2022-11-17T05:22:12.180Z,17.3
2022-11-17T05:27:18.272Z,17.3
2022-11-17T05:32:24.426Z,17.4
2022-11-17T05:37:30.476Z,17.4
2022-11-17T05:42:36.554Z,17.4
2022-11-17T05:47:42.648Z,17.4
2022-11-17T05:52:48.810Z,17.3
2022-11-17T05:57:54.978Z,17.3
2022-11-17T06:03:01.188Z,17.3
2022-11-17T06:08:07.261Z,17.3
2022-11-17T06:13:13.413Z,17.3
2022-11-17T06:18:19.557Z,17.4
2022-11-17T06:23:25.714Z,17.4
2022-11-17T06:28:31.869Z,17.4
2022-11-17T06:33:38.027Z,17.4
2022-11-17T06:38:44.171Z,17.4
2022-11-17T06:43:50.326Z,17.4
2022-11-17T06:48:56.483Z,17.4
2022-11-17T06:54:02.657Z,17.4
2022-11-17T06:59:08.911Z,17.4
2022-11-17T07:04:15.170Z,17.4
2022-11-17T07:09:21.457Z,17.4
2022-11-17T07:14:27.753Z,17.4
2022-11-17T07:19:33.979Z,17.5
2022-11-17T07:24:40.254Z,17.6
2022-11-17T07:29:46.603Z,17.8
2022-11-17T07:34:52.844Z,17.9
2022-11-17T07:39:59.054Z,18
2022-11-17T07:45:05.309Z,18
2022-11-17T07:50:11.621Z,18
2022-11-17T07:55:17.843Z,17.9
2022-11-17T08:00:24.233Z,17.9
2022-11-17T08:05:30.656Z,17.9
2022-11-17T08:10:37.040Z,17.9
2022-11-17T08:15:43.539Z,18
2022-11-17T08:20:50.085Z,18
2022-11-17T08:25:56.479Z,18
2022-11-17T08:31:02.922Z,18
2022-11-17T08:36:09.439Z,18
2022-11-17T08:41:15.884Z,18.1
2022-11-17T08:46:22.341Z,18.1
2022-11-17T08:51:28.963Z,18.1
2022-11-17T08:56:35.436Z,18.1
2022-11-17T09:01:41.864Z,18.1
2022-11-17T09:06:48.391Z,18.1
2022-11-17T09:11:55.258Z,18.1
2022-11-17T09:17:02.249Z,18.1
2022-11-17T09:22:09.255Z,18.1
2022-11-17T09:27:16.256Z,18.1
2022-11-17T09:32:23.267Z,18.1
2022-11-17T09:37:30.267Z,18.1
2022-11-17T09:42:37.294Z,18.1
2022-11-17T09:47:44.287Z,18.2
2022-11-17T09:52:51.295Z,18.2
2022-11-17T09:57:58.387Z,18.2
2022-11-17T10:03:05.305Z,18.1
2022-11-17T10:08:12.308Z,18.1
2022-11-17T10:13:19.307Z,18.2
2022-11-17T10:18:27.166Z,18.2
2022-11-17T10:23:34.990Z,18.2
2022-11-17T10:28:42.819Z,18.2
2022-11-17T10:33:50.644Z,18.2
2022-11-17T10:38:58.468Z,18.2
2022-11-17T10:44:06.301Z,18.2
2022-11-17T10:49:14.137Z,18.2
2022-11-17T10:54:21.963Z,18.2
2022-11-17T10:59:29.790Z,18.2
2022-11-17T11:04:37.627Z,18.2
2022-11-17T11:09:45.446Z,18.2
2022-11-17T11:14:53.273Z,18.1
2022-11-17T11:20:01.114Z,18.2
2022-11-17T11:25:08.940Z,18.2
2022-11-17T11:30:16.771Z,18.2
2022-11-17T11:35:24.598Z,18.2
2022-11-17T11:40:32.427Z,18.2
2022-11-17T11:45:38.892Z,18.2
2022-11-17T11:50:45.039Z,18.2
2022-11-17T11:55:51.190Z,18.2
2022-11-17T12:00:57.344Z,18.2
2022-11-17T12:06:03.498Z,18.2
2022-11-17T12:11:09.650Z,18.2
2022-11-17T12:16:15.801Z,18.2
2022-11-17T12:21:21.956Z,18.2
2022-11-17T12:26:28.102Z,18.2
2022-11-17T12:31:34.259Z,18.2
2022-11-17T12:36:40.407Z,18.2
2022-11-17T12:41:46.557Z,18.2
2022-11-17T12:46:52.714Z,18.2
2022-11-17T12:51:58.866Z,18.2
2022-11-17T12:57:05.016Z,18.2
2022-11-17T13:02:11.170Z,18.2
2022-11-17T13:07:17.381Z,18.2
2022-11-17T13:12:23.551Z,18.2
2022-11-17T13:17:29.828Z,18.2
2022-11-17T13:22:35.940Z,18.2
2022-11-17T13:27:42.151Z,18.2
2022-11-17T13:32:48.320Z,18.2
2022-11-17T13:37:54.420Z,18.2
2022-11-17T13:43:00.567Z,18.2
2022-11-17T13:48:06.653Z,18.2
2022-11-17T13:53:12.875Z,18.2
2022-11-17T13:58:19.080Z,18.2
2022-11-17T14:03:25.340Z,18.2
2022-11-17T14:08:31.660Z,18.3
2022-11-17T14:13:37.879Z,18.3
2022-11-17T14:18:44.141Z,18.3
2022-11-17T14:23:50.414Z,18.3
2022-11-17T14:28:56.762Z,18.3
2022-11-17T14:34:03.097Z,18.3
2022-11-17T14:39:09.214Z,18.3
2022-11-17T14:44:15.523Z,18.3
2022-11-17T14:49:21.737Z,18.4
2022-11-17T14:54:28.111Z,18.3
2022-11-17T14:59:34.662Z,18.3
2022-11-17T15:04:41.037Z,18.3
2022-11-17T15:09:47.578Z,18.4
2022-11-17T15:14:54.082Z,18.4
2022-11-17T15:20:00.442Z,18.4
2022-11-17T15:25:06.838Z,18.4
2022-11-17T15:30:13.304Z,18.4
2022-11-17T15:35:19.783Z,18.4
2022-11-17T15:40:26.359Z,18.3
2022-11-17T15:45:32.810Z,18.4
2022-11-17T15:50:39.200Z,18.4
2022-11-17T15:55:45.669Z,18.4
2022-11-17T16:00:52.209Z,18.3
2022-11-17T16:05:59.149Z,18.3
2022-11-17T16:11:06.424Z,18.2
2022-11-17T16:16:13.361Z,18.2
2022-11-17T16:21:20.312Z,18.2
2022-11-17T16:26:27.305Z,18.2
2022-11-17T16:31:34.186Z,18.2
2022-11-17T16:36:41.245Z,18.1
2022-11-17T16:41:48.316Z,18.1
2022-11-17T16:46:55.197Z,18.1
2022-11-17T16:52:02.208Z,18.1
2022-11-17T16:57:09.214Z,18
2022-11-17T17:02:16.333Z,18
2022-11-17T17:07:23.227Z,18
2022-11-17T17:12:31.077Z,18
2022-11-17T17:17:38.908Z,18
2022-11-17T17:22:46.725Z,18
2022-11-17T17:27:54.628Z,18
2022-11-17T17:33:02.382Z,17.9
2022-11-17T17:38:10.222Z,17.9
2022-11-17T17:43:16.500Z,17.9
2022-11-17T17:48:22.661Z,17.9
2022-11-17T17:53:28.798Z,17.9
2022-11-17T17:58:34.953Z,17.9
2022-11-17T18:03:41.115Z,17.9
2022-11-17T18:08:47.266Z,17.9
2022-11-17T18:13:53.459Z,17.8
2022-11-17T18:18:59.575Z,17.8
2022-11-17T18:24:05.716Z,17.8
2022-11-17T18:29:11.965Z,17.8
2022-11-17T18:34:18.044Z,17.8
2022-11-17T18:39:24.248Z,17.8
2022-11-17T18:44:30.326Z,17.8
2022-11-17T18:49:36.595Z,17.8
2022-11-17T18:54:42.764Z,17.8
2022-11-17T18:59:48.950Z,17.8
2022-11-17T19:04:55.019Z,17.7
2022-11-17T19:10:01.094Z,17.7
2022-11-17T19:15:07.354Z,17.7
2022-11-17T19:20:13.413Z,17.7
2022-11-17T19:25:19.544Z,17.7
2022-11-17T19:30:25.711Z,17.7
2022-11-17T19:35:31.851Z,17.7
2022-11-17T19:40:38.010Z,17.7
2022-11-17T19:45:44.154Z,17.6
2022-11-17T19:50:50.425Z,17.6
2022-11-17T19:55:56.704Z,17.6
2022-11-17T20:01:02.955Z,17.6
2022-11-17T20:06:09.271Z,17.6
2022-11-17T20:11:15.501Z,17.6
2022-11-17T20:16:21.918Z,17.6
2022-11-17T20:21:28.031Z,17.6
2022-11-17T20:26:34.456Z,17.6
2022-11-17T20:31:40.649Z,17.6
2022-11-17T20:36:46.877Z,17.6
2022-11-17T20:46:59.352Z,17.6
2022-11-17T20:52:05.629Z,17.6
2022-11-17T20:57:12.099Z,17.6
2022-11-17T21:02:18.572Z,17.5
2022-11-17T21:07:25.144Z,17.5
2022-11-17T21:12:31.531Z,17.5
2022-11-17T21:17:37.990Z,17.5
2022-11-17T21:22:44.584Z,17.5
2022-11-17T21:27:51.017Z,17.5
2022-11-17T21:32:57.408Z,17.5
2022-11-17T21:38:03.938Z,17.5
2022-11-17T21:43:10.345Z,17.5
2022-11-17T21:48:16.812Z,17.5
2022-11-17T21:53:23.313Z,17.5
2022-11-17T21:58:28.682Z,17.5
2022-11-17T22:03:34.818Z,17.5
2022-11-17T22:08:40.958Z,17.4
2022-11-17T22:18:53.136Z,17.4
2022-11-17T22:23:59.144Z,17.4
2022-11-17T22:29:05.257Z,17.4
2022-11-17T22:34:11.387Z,17.4
2022-11-17T22:39:17.412Z,17.4
2022-11-17T22:44:23.550Z,17.4
2022-11-17T22:49:29.596Z,17.4
2022-11-17T22:54:35.727Z,17.4
2022-11-17T22:59:41.778Z,17.4
2022-11-17T23:04:47.880Z,17.4
2022-11-17T23:09:53.962Z,17.4
2022-11-17T23:15:00.073Z,17.4
2022-11-17T23:20:06.236Z,17.4
2022-11-17T23:25:12.296Z,17.4
2022-11-17T23:30:18.328Z,17.4
2022-11-17T23:35:23.442Z,17.3
2022-11-17T23:40:29.532Z,17.3
2022-11-17T23:45:35.629Z,17.3
2022-11-17T23:50:41.718Z,17.3
2022-11-17T23:55:47.804Z,17.3
